Time;durP1;ratioP1;P1;durP2;ratioP2;P2;SDS_P1;SDS_P2;PMS_P1;PMS_P2;Temp;Humidity;BMP_temperature;BMP_pressure;BME280_temperature;BME280_humidity;BME280_pressure;Samples;Min_cycle;Max_cycle;Signal;HPM_P1;HPM_P2
2023/08/10 00:00:50;;;;;;;5.97;1.57;;;;;;;13.97;100.00;101985.47;4974813;28;20062;-91
2023/08/10 00:03:15;;;;;;;4.20;1.40;;;;;;;13.91;100.00;101971.09;4975264;28;20019;-91
2023/08/10 00:05:40;;;;;;;2.23;1.30;;;;;;;13.99;100.00;101978.75;4973404;28;20109;-91
2023/08/10 00:08:06;;;;;;;2.25;1.40;;;;;;;13.99;100.00;101983.31;4975551;28;20015;-91
2023/08/10 00:10:31;;;;;;;3.40;1.40;;;;;;;13.93;100.00;101968.97;4974837;28;20520;-91
2023/08/10 00:12:57;;;;;;;2.23;1.40;;;;;;;13.99;100.00;101986.81;4975212;28;20023;-91
2023/08/10 00:15:22;;;;;;;2.60;1.40;;;;;;;13.99;100.00;101994.91;4974851;28;20015;-92
2023/08/10 00:17:48;;;;;;;5.27;2.00;;;;;;;13.96;100.00;101986.53;4974841;28;20030;-92
2023/08/10 00:20:14;;;;;;;7.60;2.10;;;;;;;13.96;100.00;101994.63;4974747;28;20107;-91
2023/08/10 00:22:39;;;;;;;8.13;2.03;;;;;;;13.99;100.00;101992.22;4990993;28;20034;-91
2023/08/10 00:25:05;;;;;;;3.63;2.30;;;;;;;13.95;100.00;101984.91;5008118;28;20387;-92
2023/08/10 00:27:30;;;;;;;4.18;2.50;;;;;;;14.00;100.00;101988.47;4994221;28;20026;-91
2023/08/10 00:29:56;;;;;;;6.40;2.50;;;;;;;14.02;100.00;101994.41;5013672;28;20030;-91
2023/08/10 00:32:23;;;;;;;8.43;2.90;;;;;;;14.03;100.00;101992.53;4986660;28;20057;-91
2023/08/10 00:34:48;;;;;;;4.60;2.70;;;;;;;14.00;100.00;101993.84;4974466;28;20023;-92
2023/08/10 00:37:14;;;;;;;6.87;2.50;;;;;;;-148.15;100.00;81114.63;4974539;28;20467;-91
2023/08/10 00:39:40;;;;;;;6.88;2.58;;;;;;;-148.15;100.00;61821.78;4973657;28;20031;-91
2023/08/10 00:42:05;;;;;;;3.45;2.50;;;;;;;-148.15;100.00;61821.78;4974165;28;20409;-91
2023/08/10 00:44:31;;;;;;;6.50;2.37;;;;;;;-148.15;100.00;61821.78;4974590;28;20039;-92
2023/08/10 00:46:56;;;;;;;7.73;2.50;;;;;;;-148.15;100.00;61821.78;4974260;28;20027;-91
2023/08/10 00:49:21;;;;;;;5.28;2.75;;;;;;;-148.15;100.00;61821.78;4974000;28;20037;-91
2023/08/10 00:51:47;;;;;;;3.47;2.60;;;;;;;-148.15;100.00;61821.78;4973895;28;20033;-91
2023/08/10 00:54:12;;;;;;;5.30;2.70;;;;;;;-148.15;100.00;61821.78;4974129;28;20030;-91
2023/08/10 00:56:38;;;;;;;2.93;2.63;;;;;;;-148.15;100.00;61821.78;4985081;28;20038;-92
2023/08/10 00:59:03;;;;;;;3.35;2.60;;;;;;;-148.15;100.00;61821.78;4993343;28;20529;-92
2023/08/10 01:01:29;;;;;;;7.17;2.47;;;;;;;-148.15;100.00;61821.78;4988785;28;20521;-91
2023/08/10 01:03:54;;;;;;;5.20;2.60;;;;;;;-148.15;100.00;61821.78;4973798;28;20041;-91
2023/08/10 01:06:43;;;;;;;4.15;2.65;;;;;;;-148.15;100.00;61821.78;4973892;28;20110;-91
2023/08/10 01:09:39;;;;;;;6.82;2.80;;;;;;;-148.15;100.00;61821.78;4973816;28;20482;-91
2023/08/10 01:12:30;;;;;;;5.53;3.03;;;;;;;-148.15;100.00;61821.78;4974981;28;20391;-91
2023/08/10 01:15:05;;;;;;;3.30;2.80;;;;;;;-148.15;100.00;61821.78;4972929;28;20380;-92
2023/08/10 01:17:36;;;;;;;4.93;2.90;;;;;;;-148.15;100.00;61821.78;4973971;28;20035;-91
2023/08/10 01:20:04;;;;;;;6.57;3.30;;;;;;;-148.15;100.00;61821.78;4973456;28;20121;-92
2023/08/10 01:22:48;;;;;;;5.63;3.33;;;;;;;-148.15;100.00;61821.78;4974035;28;20023;-91
2023/08/10 01:25:15;;;;;;;6.53;2.80;;;;;;;-148.15;100.00;61821.78;4973544;28;20023;-92
2023/08/10 01:27:41;;;;;;;5.13;3.20;;;;;;;-148.15;100.00;61821.78;4973170;28;20039;-92
2023/08/10 01:30:08;;;;;;;4.40;3.03;;;;;;;-148.15;100.00;61821.78;4949017;28;20632;-91
2023/08/10 01:32:33;;;;;;;4.20;2.88;;;;;;;-148.15;100.00;61821.78;4954349;29;20034;-90
2023/08/10 01:35:00;;;;;;;6.27;3.30;;;;;;;-148.15;100.00;61821.78;4953899;29;20027;-92
2023/08/10 01:37:26;;;;;;;7.47;3.42;;;;;;;-148.15;100.00;61821.78;4953531;29;20023;-92
2023/08/10 01:39:51;;;;;;;4.65;3.13;;;;;;;-148.15;100.00;61821.78;4953911;29;20487;-91
2023/08/10 01:42:17;;;;;;;6.23;3.23;;;;;;;-148.15;100.00;61821.78;4961730;29;20035;-92
2023/08/10 01:44:43;;;;;;;6.30;3.35;;;;;;;-148.15;100.00;61821.78;4970980;28;20070;-91
2023/08/10 01:47:17;;;;;;;6.20;3.10;;;;;;;-148.15;100.00;61821.78;4973329;28;20051;-91
2023/08/10 01:49:44;;;;;;;5.78;2.75;;;;;;;-148.15;100.00;61821.78;4989777;28;20023;-91
2023/08/10 01:52:11;;;;;;;7.07;3.30;;;;;;;-148.15;100.00;61821.78;4979951;28;20043;-91
2023/08/10 01:54:37;;;;;;;6.00;2.92;;;;;;;-148.15;100.00;61821.78;4973340;28;20026;-92
2023/08/10 01:57:02;;;;;;;6.80;3.20;;;;;;;-148.15;100.00;61821.78;4972531;28;20026;-91
2023/08/10 01:59:29;;;;;;;5.35;3.15;;;;;;;-148.15;100.00;61821.78;4972882;28;20047;-91
2023/08/10 02:01:55;;;;;;;6.20;3.40;;;;;;;-148.15;100.00;61821.78;4972557;28;20030;-92
2023/08/10 02:04:21;;;;;;;3.95;2.85;;;;;;;-148.15;100.00;61821.78;4972758;28;20033;-92
2023/08/10 02:06:46;;;;;;;5.15;3.13;;;;;;;-148.15;100.00;61821.78;4971853;28;20027;-91
2023/08/10 02:09:11;;;;;;;6.73;3.23;;;;;;;-148.15;100.00;61821.78;4972661;28;20474;-91
2023/08/10 02:11:37;;;;;;;6.50;3.47;;;;;;;-148.15;100.00;61821.78;4972833;28;20031;-91
2023/08/10 02:14:02;;;;;;;8.83;3.40;;;;;;;-148.15;100.00;61821.78;4972684;28;20383;-91
2023/08/10 02:16:27;;;;;;;6.43;3.25;;;;;;;-148.15;100.00;61821.78;4972470;28;20479;-90
2023/08/10 02:18:53;;;;;;;6.70;3.00;;;;;;;-148.15;100.00;61821.78;4971794;28;20034;-91
2023/08/10 02:21:18;;;;;;;6.73;3.07;;;;;;;-148.15;100.00;61821.78;4972381;28;20031;-91
2023/08/10 02:23:43;;;;;;;6.03;3.03;;;;;;;-148.15;100.00;61821.78;4972436;28;20045;-91
2023/08/10 02:26:09;;;;;;;7.07;3.50;;;;;;;-148.15;100.00;61821.78;4971512;28;20035;-91
2023/08/10 02:28:34;;;;;;;5.28;3.47;;;;;;;-148.15;100.00;61821.78;4972449;28;20119;-92
2023/08/10 02:30:59;;;;;;;6.93;3.40;;;;;;;-148.15;100.00;61821.78;4972652;28;20030;-90
2023/08/10 02:33:25;;;;;;;7.03;3.80;;;;;;;-148.15;100.00;61821.78;4971674;28;20114;-89
2023/08/10 02:35:50;;;;;;;7.27;3.07;;;;;;;-148.15;100.00;61821.78;4982411;28;20034;-89
2023/08/10 02:38:15;;;;;;;5.13;3.13;;;;;;;-148.15;100.00;61821.78;4991491;28;20055;-90
2023/08/10 02:40:41;;;;;;;6.60;2.75;;;;;;;-148.15;100.00;61821.78;4991631;28;20077;-90
2023/08/10 02:43:06;;;;;;;4.90;3.07;;;;;;;-148.15;100.00;61821.78;4982665;28;20039;-88
2023/08/10 02:45:31;;;;;;;3.73;2.50;;;;;;;-148.15;100.00;61821.78;4968354;28;20478;-90
2023/08/10 02:47:57;;;;;;;6.93;2.70;;;;;;;-148.15;100.00;61821.78;4971381;28;20022;-90
2023/08/10 02:50:22;;;;;;;4.03;2.80;;;;;;;-148.15;100.00;61821.78;4971899;28;20026;-89
2023/08/10 02:52:47;;;;;;;5.25;2.90;;;;;;;-148.15;100.00;61821.78;4973618;28;20077;-89
2023/08/10 02:55:13;;;;;;;4.07;2.80;;;;;;;-148.15;100.00;61821.78;4970950;28;20506;-89
2023/08/10 02:57:38;;;;;;;3.00;2.67;;;;;;;-148.15;100.00;61821.78;4971141;28;20065;-89
2023/08/10 03:00:07;;;;;;;6.67;3.13;;;;;;;-148.15;100.00;61821.78;4971852;28;20035;-89
2023/08/10 03:02:33;;;;;;;4.50;3.20;;;;;;;-148.15;100.00;61821.78;4993038;28;20029;-90
2023/08/10 03:04:59;;;;;;;5.90;3.17;;;;;;;-148.15;100.00;61821.78;4989192;28;20026;-89
2023/08/10 03:07:26;;;;;;;6.32;3.20;;;;;;;-148.15;100.00;61821.78;4970593;28;21104;-89
2023/08/10 03:09:52;;;;;;;7.97;2.90;;;;;;;-148.15;100.00;61821.78;4982444;28;20466;-89
2023/08/10 03:12:17;;;;;;;7.22;3.40;;;;;;;-148.15;100.00;61821.78;4973645;28;20065;-89
2023/08/10 03:14:42;;;;;;;3.77;2.90;;;;;;;-148.15;100.00;61821.78;4971398;28;20450;-89
2023/08/10 03:17:08;;;;;;;4.03;2.83;;;;;;;-148.15;100.00;61821.78;4988676;28;20030;-89
2023/08/10 03:19:33;;;;;;;3.97;2.97;;;;;;;-148.15;100.00;61821.78;4994396;28;20033;-89
2023/08/10 03:21:58;;;;;;;3.78;3.08;;;;;;;-148.15;100.00;61821.78;4988872;28;20031;-89
2023/08/10 03:24:24;;;;;;;5.77;3.47;;;;;;;-148.15;100.00;61821.78;4975303;28;20602;-89
2023/08/10 03:26:49;;;;;;;7.87;2.97;;;;;;;-148.15;100.00;61821.78;4974998;28;20377;-89
2023/08/10 03:29:15;;;;;;;4.00;3.10;;;;;;;-148.15;100.00;61821.78;4977415;28;20042;-94
2023/08/10 03:31:40;;;;;;;6.97;3.20;;;;;;;-148.15;100.00;61821.78;4977329;28;20026;-89
2023/08/10 03:34:05;;;;;;;6.20;3.03;;;;;;;-148.15;100.00;61821.78;4971228;28;20023;-89
2023/08/10 03:36:31;;;;;;;7.10;3.20;;;;;;;-148.15;100.00;61821.78;4974558;28;20023;-89
2023/08/10 03:38:56;;;;;;;6.17;3.30;;;;;;;-148.15;100.00;61821.78;4975364;28;20023;-88
2023/08/10 03:41:21;;;;;;;8.60;2.83;;;;;;;-148.15;100.00;61821.78;4973691;28;20026;-88
2023/08/10 03:43:47;;;;;;;5.77;3.33;;;;;;;-148.15;100.00;61821.78;4974770;28;20805;-88
2023/08/10 03:46:12;;;;;;;5.13;3.30;;;;;;;-148.15;100.00;61821.78;4974340;28;20027;-89
2023/08/10 03:48:37;;;;;;;5.17;3.17;;;;;;;-148.15;100.00;61821.78;4979958;28;20022;-89
2023/08/10 03:51:03;;;;;;;5.73;3.10;;;;;;;-148.15;100.00;61821.78;4977632;28;20086;-89
2023/08/10 03:53:28;;;;;;;4.90;3.17;;;;;;;-148.15;100.00;61821.78;4975188;28;20039;-88
2023/08/10 03:55:53;;;;;;;7.60;3.00;;;;;;;-148.15;100.00;61821.78;4974294;28;20599;-89
2023/08/10 03:58:19;;;;;;;8.10;3.03;;;;;;;-148.15;100.00;61821.78;4974537;28;20543;-89
2023/08/10 04:00:45;;;;;;;5.43;3.30;;;;;;;-148.15;100.00;61821.78;4961930;28;20035;-88
2023/08/10 04:03:13;;;;;;;6.22;3.40;;;;;;;-148.15;100.00;61821.78;4974444;28;20030;-88
2023/08/10 04:05:39;;;;;;;3.50;2.83;;;;;;;-148.15;100.00;61821.78;4979661;28;20216;-88
2023/08/10 04:08:07;;;;;;;3.67;3.10;;;;;;;-148.15;100.00;61821.78;4973408;28;20106;-89
2023/08/10 04:10:32;;;;;;;6.15;3.47;;;;;;;-148.15;100.00;61821.78;4965412;28;20114;-88
2023/08/10 04:12:58;;;;;;;5.57;3.38;;;;;;;-148.15;100.00;61821.78;4974689;28;20515;-89
2023/08/10 04:15:23;;;;;;;7.97;3.50;;;;;;;-148.15;100.00;61821.78;4974282;28;20074;-88
2023/08/10 04:17:49;;;;;;;6.50;3.00;;;;;;;-148.15;100.00;61821.78;4973883;28;20467;-89
2023/08/10 04:20:15;;;;;;;4.20;3.17;;;;;;;-148.15;100.00;61821.78;4973040;28;20503;-89
2023/08/10 04:22:40;;;;;;;4.93;3.63;;;;;;;-148.15;100.00;61821.78;4985132;28;20105;-88
2023/08/10 04:25:07;;;;;;;5.27;3.47;;;;;;;-148.15;100.00;61821.78;4997431;28;20629;-89
2023/08/10 04:27:33;;;;;;;5.22;3.50;;;;;;;-148.15;100.00;61821.78;4975647;28;20019;-88
2023/08/10 04:29:59;;;;;;;5.93;3.08;;;;;;;-148.15;100.00;61821.78;4967265;28;20466;-86
2023/08/10 04:32:24;;;;;;;4.50;3.07;;;;;;;-148.15;100.00;61821.78;4974606;28;20065;-92
2023/08/10 04:34:51;;;;;;;9.47;3.40;;;;;;;-148.15;100.00;61821.78;4974121;28;20067;-90
2023/08/10 04:37:16;;;;;;;4.70;3.15;;;;;;;-148.15;100.00;61821.78;4973671;28;20030;-90
2023/08/10 04:39:43;;;;;;;4.43;3.10;;;;;;;-148.15;100.00;61821.78;4972657;28;20035;-92
2023/08/10 04:42:09;;;;;;;4.90;3.58;;;;;;;-148.15;100.00;61821.78;4974448;28;20031;-91
2023/08/10 04:44:34;;;;;;;8.43;3.58;;;;;;;-148.15;100.00;61821.78;4968894;28;20467;-92
2023/08/10 04:46:59;;;;;;;4.03;2.97;;;;;;;-148.15;100.00;61821.78;4973404;28;20037;-92
2023/08/10 04:49:27;;;;;;;4.17;3.00;;;;;;;-148.15;100.00;61821.78;4971704;28;20070;-96
2023/08/10 04:51:52;;;;;;;5.80;3.38;;;;;;;-148.15;100.00;61821.78;4989670;28;20078;-96
2023/08/10 04:54:18;;;;;;;5.17;3.33;;;;;;;-148.15;100.00;61821.78;4992276;28;20010;-95
2023/08/10 04:56:43;;;;;;;6.80;3.67;;;;;;;-148.15;100.00;61821.78;4984350;28;20453;-92
2023/08/10 04:59:09;;;;;;;4.97;2.93;;;;;;;-148.15;100.00;61821.78;4980794;28;20360;-92
2023/08/10 05:01:34;;;;;;;3.77;3.13;;;;;;;-148.15;100.00;61821.78;4975206;28;20101;-93
2023/08/10 05:04:00;;;;;;;4.75;3.40;;;;;;;-148.15;100.00;61821.78;4973814;28;20022;-94
2023/08/10 05:06:25;;;;;;;9.63;3.00;;;;;;;-148.15;100.00;61821.78;4971555;28;20058;-95
2023/08/10 05:08:51;;;;;;;7.93;3.37;;;;;;;-148.15;100.00;61821.78;4964425;28;20042;-95
2023/08/10 05:11:16;;;;;;;5.88;3.00;;;;;;;-148.15;100.00;61821.78;4960794;28;20027;-96
2023/08/10 05:13:42;;;;;;;7.47;3.57;;;;;;;-148.15;100.00;61821.78;4983329;28;20030;-94
2023/08/10 05:16:07;;;;;;;4.17;3.07;;;;;;;-148.15;100.00;61821.78;4973857;28;20041;-93
2023/08/10 05:18:33;;;;;;;5.07;3.17;;;;;;;-148.15;100.00;61821.78;4973756;28;20458;-92
2023/08/10 05:21:00;;;;;;;6.13;3.40;;;;;;;-148.15;100.00;61821.78;4976387;28;20281;-94
2023/08/10 05:23:25;;;;;;;5.65;3.58;;;;;;;-148.15;100.00;61821.78;4974145;28;20042;-94
2023/08/10 05:25:50;;;;;;;5.90;3.85;;;;;;;-148.15;100.00;61821.78;4969055;28;20035;-90
2023/08/10 05:28:16;;;;;;;4.83;3.50;;;;;;;-148.15;100.00;61821.78;4973829;28;20027;-92
2023/08/10 05:30:41;;;;;;;7.13;3.80;;;;;;;-148.15;100.00;61821.78;4974402;28;20041;-93
2023/08/10 05:33:07;;;;;;;5.22;3.97;;;;;;;-148.15;100.00;61821.78;4973864;28;20494;-93
2023/08/10 05:35:32;;;;;;;7.50;3.90;;;;;;;-148.15;100.00;61821.78;4973686;28;20046;-94
2023/08/10 05:37:57;;;;;;;8.00;4.47;;;;;;;-148.15;100.00;61821.78;4953971;28;20141;-92
2023/08/10 05:40:23;;;;;;;9.00;4.50;;;;;;;-148.15;100.00;61821.78;4968343;28;20027;-94
2023/08/10 05:42:49;;;;;;;9.43;4.70;;;;;;;-148.15;100.00;61821.78;4986201;28;20010;-93
2023/08/10 05:45:19;;;;;;;8.53;4.33;;;;;;;-148.15;100.00;61821.78;4992672;28;20031;-95
2023/08/10 05:47:46;;;;;;;6.95;3.92;;;;;;;-148.15;100.00;61821.78;4977389;28;20072;-92
2023/08/10 05:50:12;;;;;;;8.73;4.28;;;;;;;-148.15;100.00;61821.78;5006194;28;20137;-91
2023/08/10 05:52:38;;;;;;;8.77;4.30;;;;;;;-148.15;100.00;61821.78;4983841;28;20027;-92
2023/08/10 05:55:04;;;;;;;7.17;4.47;;;;;;;-148.15;100.00;61821.78;4975701;28;20033;-91
2023/08/10 05:57:30;;;;;;;7.53;4.40;;;;;;;-148.15;100.00;61821.78;4976047;28;20027;-93
2023/08/10 05:59:55;;;;;;;9.93;4.33;;;;;;;-148.15;100.00;61821.78;4959822;29;20039;-93
2023/08/10 06:02:22;;;;;;;7.00;4.35;;;;;;;-148.15;100.00;61821.78;4936639;29;20031;-94
2023/08/10 06:04:49;;;;;;;7.40;4.28;;;;;;;-148.15;100.00;61821.78;4948054;28;20019;-92
2023/08/10 06:07:14;;;;;;;8.07;3.90;;;;;;;-148.15;100.00;61821.78;4969225;28;20540;-92
2023/08/10 06:09:40;;;;;;;6.30;4.10;;;;;;;-148.15;100.00;61821.78;4974633;28;20019;-92
2023/08/10 06:12:06;;;;;;;5.33;4.27;;;;;;;-148.15;100.00;61821.78;4990475;28;20324;-92
2023/08/10 06:14:31;;;;;;;4.85;3.83;;;;;;;-148.15;100.00;61821.78;4992963;28;20501;-92
2023/08/10 06:16:57;;;;;;;7.20;4.20;;;;;;;-148.15;100.00;61821.78;4981199;28;20106;-92
2023/08/10 06:19:23;;;;;;;9.20;4.00;;;;;;;-148.15;100.00;61821.78;4972621;28;20039;-93
2023/08/10 06:21:50;;;;;;;7.95;4.10;;;;;;;-148.15;100.00;61821.78;4967461;28;20034;-90
2023/08/10 06:24:16;;;;;;;6.10;4.55;;;;;;;-148.15;100.00;61821.78;4971111;28;20027;-91
2023/08/10 06:26:41;;;;;;;5.63;4.00;;;;;;;-148.15;100.00;61821.78;4970099;28;20046;-92
2023/08/10 06:29:07;;;;;;;6.47;3.77;;;;;;;-148.15;100.00;61821.78;4971722;28;20345;-92
2023/08/10 06:31:32;;;;;;;3.97;3.37;;;;;;;-148.15;100.00;61821.78;4982064;28;20405;-92
2023/08/10 06:33:58;;;;;;;5.03;3.43;;;;;;;-148.15;100.00;61821.78;4977698;28;20051;-93
2023/08/10 06:36:24;;;;;;;6.10;3.35;;;;;;;-148.15;100.00;61821.78;4967502;28;20035;-92
2023/08/10 06:38:50;;;;;;;7.25;3.10;;;;;;;-148.15;100.00;61821.78;4973497;28;20030;-94
2023/08/10 06:41:15;;;;;;;3.83;3.10;;;;;;;-148.15;100.00;61821.78;4974381;28;20618;-95
2023/08/10 06:43:41;;;;;;;3.63;2.90;;;;;;;-148.15;100.00;61821.78;4974298;28;20031;-92
2023/08/10 06:46:06;;;;;;;7.13;2.80;;;;;;;-148.15;100.00;61821.78;4972934;28;20383;-91
2023/08/10 06:48:31;;;;;;;5.60;2.93;;;;;;;-148.15;100.00;61821.78;4977269;28;20074;-94
2023/08/10 06:50:57;;;;;;;6.57;3.38;;;;;;;-148.15;100.00;61821.78;4983800;28;20038;-90
2023/08/10 06:53:22;;;;;;;3.90;2.97;;;;;;;-148.15;100.00;61821.78;4975575;28;20149;-90
2023/08/10 06:55:50;;;;;;;5.22;2.85;;;;;;;-148.15;100.00;61821.78;4972257;28;20106;-88
2023/08/10 06:58:18;;;;;;;3.83;2.40;;;;;;;-148.15;100.00;61821.78;4992228;28;20088;-91
2023/08/10 07:00:44;;;;;;;4.05;2.30;;;;;;;-148.15;100.00;61821.78;4972424;28;20576;-90
2023/08/10 07:03:10;;;;;;;5.45;2.30;;;;;;;-148.15;100.00;61821.78;4977329;28;20379;-91
2023/08/10 07:05:41;;;;;;;4.60;2.65;;;;;;;-148.15;100.00;61821.78;4990661;28;20038;-90
2023/08/10 07:08:08;;;;;;;4.60;2.37;;;;;;;-148.15;100.00;61821.78;4972247;28;20450;-93
2023/08/10 07:10:34;;;;;;;6.97;2.77;;;;;;;-148.15;100.00;61821.78;4987909;28;20310;-92
2023/08/10 07:12:59;;;;;;;4.85;2.47;;;;;;;-148.15;100.00;61821.78;4984079;28;20034;-93
2023/08/10 07:15:25;;;;;;;4.63;2.40;;;;;;;-148.15;100.00;61821.78;4971003;28;20100;-90
2023/08/10 07:17:50;;;;;;;4.47;2.80;;;;;;;-148.15;100.00;61821.78;4986052;28;20038;-93
2023/08/10 07:20:18;;;;;;;7.17;2.43;;;;;;;-148.15;100.00;61821.78;5069416;23;20050;-94
2023/08/10 07:22:45;;;;;;;4.05;2.20;;;;;;;-148.15;100.00;61821.78;4970320;28;20094;-95
2023/08/10 07:25:11;;;;;;;4.68;2.22;;;;;;;-148.15;100.00;61821.78;4980110;28;20526;-93
2023/08/10 07:27:37;;;;;;;6.03;2.40;;;;;;;-148.15;100.00;61821.78;5001861;28;20027;-93
2023/08/10 07:30:03;;;;;;;4.37;1.43;;;;;;;-148.15;100.00;61821.78;4995416;28;20034;-92
2023/08/10 07:32:29;;;;;;;2.38;1.30;;;;;;;-148.15;100.00;61821.78;4983159;28;20034;-92
2023/08/10 07:34:54;;;;;;;4.23;1.43;;;;;;;-148.15;100.00;61821.78;4970774;28;20438;-91
2023/08/10 07:37:19;;;;;;;1.70;1.30;;;;;;;-148.15;100.00;61821.78;4971827;28;20027;-91
2023/08/10 07:39:44;;;;;;;3.83;1.33;;;;;;;-148.15;100.00;61821.78;4971087;28;20075;-91
2023/08/10 07:42:10;;;;;;;2.93;1.40;;;;;;;-148.15;100.00;61821.78;4976258;28;20049;-92
2023/08/10 07:44:35;;;;;;;1.50;1.00;;;;;;;-148.15;100.00;61821.78;4990454;28;20026;-92
2023/08/10 07:47:00;;;;;;;2.27;1.17;;;;;;;-148.15;100.00;61821.78;4990072;28;20089;-90
2023/08/10 07:49:27;;;;;;;3.53;1.17;;;;;;;-148.15;100.00;61821.78;4985869;28;20113;-91
2023/08/10 07:51:53;;;;;;;2.70;1.50;;;;;;;-148.15;100.00;61821.78;4971317;28;20476;-92
2023/08/10 07:54:18;;;;;;;2.95;1.48;;;;;;;-148.15;100.00;61821.78;4990168;28;20117;-91
2023/08/10 07:56:44;;;;;;;3.80;1.30;;;;;;;-148.15;100.00;61821.78;4990016;28;20032;-91
2023/08/10 07:59:11;;;;;;;3.80;1.33;;;;;;;-148.15;100.00;61821.78;4990216;28;20061;-91
2023/08/10 08:01:38;;;;;;;3.20;1.10;;;;;;;-148.15;100.00;61821.78;4988636;28;20037;-91
2023/08/10 08:04:03;;;;;;;2.90;1.20;;;;;;;-148.15;100.00;61821.78;4983600;28;20027;-92
2023/08/10 08:06:29;;;;;;;2.17;1.10;;;;;;;-148.15;100.00;61821.78;4973629;28;20109;-91
2023/08/10 08:08:54;;;;;;;4.20;1.30;;;;;;;-148.15;100.00;61821.78;4973898;28;20034;-91
2023/08/10 08:11:19;;;;;;;4.40;1.20;;;;;;;-148.15;100.00;61821.78;4975504;28;20026;-91
2023/08/10 08:13:45;;;;;;;1.50;1.17;;;;;;;-148.15;100.00;61821.78;4989996;28;20430;-90
2023/08/10 08:16:10;;;;;;;2.38;1.25;;;;;;;-148.15;100.00;61821.78;4976120;28;20607;-91
2023/08/10 08:18:56;;;;;;;2.40;1.27;;;;;;;-148.15;100.00;61821.78;4985603;28;20035;-91
2023/08/10 08:21:23;;;;;;;2.50;1.33;;;;;;;-148.15;100.00;61821.78;4973389;28;20054;-91
2023/08/10 08:23:50;;;;;;;2.70;1.50;;;;;;;-148.15;100.00;61821.78;4990050;28;20023;-91
2023/08/10 08:26:17;;;;;;;2.90;1.27;;;;;;;-148.15;100.00;61821.78;4990882;28;20302;-92
2023/08/10 08:28:44;;;;;;;3.50;1.30;;;;;;;-148.15;100.00;61821.78;4981687;28;20074;-92
2023/08/10 08:31:10;;;;;;;2.78;1.20;;;;;;;-148.15;100.00;61821.78;4991299;28;20027;-92
2023/08/10 08:33:35;;;;;;;2.40;1.30;;;;;;;-148.15;100.00;61821.78;4964309;28;20039;-92
2023/08/10 08:36:01;;;;;;;4.82;1.52;;;;;;;-148.15;100.00;61821.78;4969127;28;20088;-92
2023/08/10 08:38:29;;;;;;;1.57;1.10;;;;;;;-148.15;100.00;61821.78;4973892;28;20695;-92
2023/08/10 08:40:55;;;;;;;1.40;1.15;;;;;;;-148.15;100.00;61821.78;4974092;28;20034;-90
2023/08/10 08:43:21;;;;;;;2.03;1.30;;;;;;;-148.15;100.00;61821.78;4985206;28;20482;-92
2023/08/10 08:45:46;;;;;;;4.00;1.35;;;;;;;-148.15;100.00;61821.78;4993170;28;20033;-91
2023/08/10 08:48:16;;;;;;;2.40;1.50;;;;;;;-148.15;100.00;61821.78;4993479;28;20037;-91
2023/08/10 08:50:43;;;;;;;1.73;1.13;;;;;;;-148.15;100.00;61821.78;4974220;28;20054;-91
2023/08/10 08:53:10;;;;;;;4.68;1.40;;;;;;;-148.15;100.00;61821.78;4984536;28;20031;-92
2023/08/10 08:55:37;;;;;;;1.52;1.20;;;;;;;-148.15;100.00;61821.78;4994504;28;20041;-92
2023/08/10 08:58:03;;;;;;;2.30;1.25;;;;;;;-148.15;100.00;61821.78;4993408;28;20552;-93
2023/08/10 09:00:30;;;;;;;1.50;1.40;;;;;;;-148.15;100.00;61821.78;4993569;28;20030;-92
2023/08/10 09:02:56;;;;;;;2.35;1.38;;;;;;;-148.15;100.00;61821.78;4990641;28;20041;-91
2023/08/10 09:05:21;;;;;;;2.13;1.43;;;;;;;-148.15;100.00;61821.78;4985064;28;20031;-91
2023/08/10 09:07:46;;;;;;;2.67;1.50;;;;;;;-148.15;100.00;61821.78;4974407;28;20026;-91
2023/08/10 09:10:12;;;;;;;2.20;1.60;;;;;;;-148.15;100.00;61821.78;4993052;28;20101;-90
2023/08/10 09:12:39;;;;;;;2.67;1.50;;;;;;;-148.15;100.00;61821.78;4990707;28;20436;-91
2023/08/10 09:15:06;;;;;;;5.00;1.60;;;;;;;-148.15;100.00;61821.78;4992767;28;20308;-92
2023/08/10 09:17:33;;;;;;;2.17;1.40;;;;;;;-148.15;100.00;61821.78;4973951;28;20078;-91
2023/08/10 09:19:58;;;;;;;2.25;1.52;;;;;;;-148.15;100.00;61821.78;4973169;28;20521;-92
2023/08/10 09:22:33;;;;;;;2.08;1.63;;;;;;;-148.15;100.00;61821.78;4976582;28;20026;-91
2023/08/10 09:25:00;;;;;;;2.25;1.40;;;;;;;-148.15;100.00;61821.78;4994190;28;20030;-92
2023/08/10 09:27:27;;;;;;;3.67;1.70;;;;;;;-148.15;100.00;61821.78;4992802;28;20026;-91
2023/08/10 09:30:03;;;;;;;3.17;1.50;;;;;;;-148.15;100.00;61821.78;4994458;28;20281;-88
2023/08/10 09:32:29;;;;;;;4.40;1.55;;;;;;;-148.15;100.00;61821.78;4991244;28;20386;-91
2023/08/10 09:34:55;;;;;;;2.95;1.50;;;;;;;-148.15;100.00;61821.78;4993158;28;20022;-91
2023/08/10 09:37:22;;;;;;;5.03;1.93;;;;;;;-148.15;100.00;61821.78;4959213;28;20114;-92
2023/08/10 09:39:53;;;;;;;1.90;1.42;;;;;;;-148.15;100.00;61821.78;4972581;28;20034;-92
2023/08/10 09:42:18;;;;;;;3.30;1.40;;;;;;;-148.15;100.00;61821.78;4972173;28;20057;-92
2023/08/10 09:44:49;;;;;;;2.00;1.30;;;;;;;-148.15;100.00;61821.78;4991190;28;20031;-92
2023/08/10 09:47:16;;;;;;;4.82;1.48;;;;;;;-148.15;100.00;61821.78;4995971;28;20026;-92
2023/08/10 09:49:55;;;;;;;4.13;1.88;;;;;;;-148.15;100.00;61821.78;4980391;28;20074;-92
2023/08/10 09:52:22;;;;;;;3.42;1.55;;;;;;;-148.15;100.00;61821.78;4968063;29;20102;-92
2023/08/10 09:54:50;;;;;;;2.55;1.50;;;;;;;-148.15;100.00;61821.78;4955070;28;20031;-92
2023/08/10 09:57:17;;;;;;;3.05;1.75;;;;;;;-148.15;100.00;61821.78;4973593;28;20537;-91
2023/08/10 09:59:43;;;;;;;2.90;1.63;;;;;;;-148.15;100.00;61821.78;4973675;28;20034;-91
2023/08/10 10:02:10;;;;;;;3.83;1.65;;;;;;;-148.15;100.00;61821.78;4973014;28;20387;-92
2023/08/10 10:04:36;;;;;;;6.03;2.00;;;;;;;-148.15;100.00;61821.78;4971768;28;20047;-93
2023/08/10 10:07:03;;;;;;;2.30;1.95;;;;;;;-148.15;100.00;61821.78;4989753;28;20136;-92
2023/08/10 10:09:29;;;;;;;1.70;1.60;;;;;;;-148.15;100.00;61821.78;4987432;28;20030;-91
2023/08/10 10:11:58;;;;;;;6.75;1.95;;;;;;;-148.15;100.00;61821.78;4954982;28;20489;-91
2023/08/10 10:14:23;;;;;;;2.38;1.55;;;;;;;-148.15;100.00;61821.78;4953507;29;20449;-91
2023/08/10 10:16:51;;;;;;;2.60;1.80;;;;;;;-148.15;100.00;61821.78;4969168;28;20114;-90
2023/08/10 10:19:16;;;;;;;2.30;1.50;;;;;;;-148.15;100.00;61821.78;4990572;28;20030;-89
2023/08/10 10:21:42;;;;;;;4.43;1.88;;;;;;;-148.15;100.00;61821.78;4953081;28;20109;-89
2023/08/10 10:24:12;;;;;;;1.83;1.27;;;;;;;-148.15;100.00;61821.78;4971766;28;20597;-89
2023/08/10 10:26:38;;;;;;;3.87;2.00;;;;;;;-148.15;100.00;61821.78;4985614;28;20316;-91
2023/08/10 10:29:13;;;;;;;2.28;1.70;;;;;;;-148.15;100.00;61821.78;4990584;28;20382;-91
2023/08/10 10:31:39;;;;;;;2.85;1.90;;;;;;;-148.15;100.00;61821.78;4991154;28;20044;-91
2023/08/10 10:34:05;;;;;;;3.50;1.98;;;;;;;-148.15;100.00;61821.78;4990942;28;20026;-92
2023/08/10 10:36:33;;;;;;;2.43;1.90;;;;;;;-148.15;100.00;61821.78;4975085;28;20033;-91
2023/08/10 10:39:11;;;;;;;5.00;1.58;;;;;;;-148.15;100.00;61821.78;4953591;28;20046;-92
2023/08/10 10:41:41;;;;;;;1.88;1.73;;;;;;;-148.15;100.00;61821.78;4953465;29;20034;-92
2023/08/10 10:44:08;;;;;;;5.72;2.10;;;;;;;-148.15;100.00;61821.78;4952673;29;20109;-92
2023/08/10 10:46:36;;;;;;;2.37;1.53;;;;;;;-148.15;100.00;61821.78;4980048;28;20109;-92
2023/08/10 10:49:06;;;;;;;4.40;2.20;;;;;;;-148.15;100.00;61821.78;4990606;28;20281;-91
2023/08/10 10:51:42;;;;;;;5.03;1.92;;;;;;;-148.15;100.00;61821.78;4992473;28;20050;-91
2023/08/10 10:54:07;;;;;;;3.25;2.00;;;;;;;-148.15;100.00;61821.78;4977076;28;20026;-92
2023/08/10 10:56:32;;;;;;;3.53;2.20;;;;;;;-148.15;100.00;61821.78;4984974;28;20113;-92
2023/08/10 10:58:58;;;;;;;5.40;2.67;;;;;;;-148.15;100.00;61821.78;4990324;28;20098;-92
2023/08/10 11:01:23;;;;;;;3.50;2.27;;;;;;;-148.15;100.00;61821.78;4989806;28;20470;-92
2023/08/10 11:03:55;;;;;;;3.07;1.87;;;;;;;-148.15;100.00;61821.78;4967051;28;20031;-92
2023/08/10 11:06:24;;;;;;;4.65;1.70;;;;;;;-148.15;100.00;61821.78;4970311;28;20065;-91